PWSweather.com
Personal Weather Stations
Station Observations
MAKAWAOWX1
Up Country Maui, Makawao, HI 96768

Up Country MauiMakawao, HI 96768

Lat: 20.856944, Lon: -156.3149667

Elevation: 1500

Station Type: Davis Vantage Pro

Latest ConditionsUpdated 7:50:27 PM HST Wednesday, Jul 29, 2015
Currently Today's Max Today's Min Today's Average
Temperature 73.6°F23.1°C 87.6°F30.9°C 67.3°F19.6°C 77.6°F25.3°C
Dew Point 63.6°F17.6°C 72.4°F22.4°C 61.3°F16.3°C 67.2°F19.6°C
Winds 3.7 mph E6.0 kmh E 13.0 mph E20.9 kmh E - 4.7 mph 7.6 kmh
Wind Gusts 9.0 mph14.5 kmh 18.0 mph29.0 kmh - -
Humidity 71% 90% 56% 71%
Pressure 29.84 in1010.5 mb 29.88 in1011.9 mb 29.78 in1008.5 mb -
Hour Temp Dew Point Humidity Winds Wind Gusts Pressure Precip Precip Rate Daily Precip Total
07:50 PM 73.6°F23.1°C 63.6°F17.6°C 71% 3.7 mph E6.0 kmh E 9.0 mph14.5 kmh 29.84 in1010.5 mb - 0.00 in0.0 mm 0.00 in0.0 mm
07:40 PM 74.2°F23.4°C 63.0°F17.2°C 68% 5.9 mph E9.5 kmh E 13.0 mph20.9 kmh 29.83 in1010.2 mb - 0.00 in0.0 mm 0.00 in0.0 mm
07:30 PM 74.7°F23.7°C 62.6°F17.0°C 66% 6.4 mph E10.3 kmh E 8.0 mph12.9 kmh 29.83 in1010.2 mb - 0.00 in0.0 mm 0.00 in0.0 mm
07:20 PM 74.7°F23.7°C 61.3°F16.3°C 63% 2.1 mph E3.4 kmh E 9.0 mph14.5 kmh 29.83 in1010.2 mb - 0.00 in0.0 mm 0.00 in0.0 mm
07:10 PM 74.8°F23.8°C 62.3°F16.8°C 65% 4.3 mph E6.9 kmh E 8.0 mph12.9 kmh 29.82 in1009.8 mb - 0.00 in0.0 mm 0.00 in0.0 mm
07:00 PM 75.5°F24.2°C 63.8°F17.7°C 67% 4.6 mph E7.4 kmh E 15.0 mph24.1 kmh 29.82 in1009.8 mb - 0.00 in0.0 mm 0.00 in0.0 mm
06:50 PM 76.0°F24.4°C 63.4°F17.4°C 65% 8.7 mph E14.0 kmh E 16.0 mph25.7 kmh 29.82 in1009.8 mb - 0.00 in0.0 mm 0.00 in0.0 mm
06:40 PM 76.5°F24.7°C 64.3°F17.9°C 66% 3.0 mph E4.8 kmh E 6.0 mph9.7 kmh 29.81 in1009.5 mb - 0.00 in0.0 mm 0.00 in0.0 mm
06:30 PM 76.9°F24.9°C 64.2°F17.9°C 65% 7.0 mph E11.3 kmh E 12.0 mph19.3 kmh 29.81 in1009.5 mb - 0.00 in0.0 mm 0.00 in0.0 mm
06:20 PM 77.3°F25.2°C 66.4°F19.1°C 69% 5.3 mph E8.5 kmh E 11.0 mph17.7 kmh 29.80 in1009.1 mb - 0.00 in0.0 mm 0.00 in0.0 mm
06:10 PM 78.0°F25.6°C 67.0°F19.4°C 69% 3.1 mph E5.0 kmh E 11.0 mph17.7 kmh 29.80 in1009.1 mb - 0.00 in0.0 mm 0.00 in0.0 mm
06:00 PM 78.7°F25.9°C 67.7°F19.8°C 69% 7.2 mph ENE11.6 kmh ENE 10.0 mph16.1 kmh 29.80 in1009.1 mb - 0.00 in0.0 mm 0.00 in0.0 mm
05:50 PM 79.4°F26.3°C 68.3°F20.2°C 69% 10.1 mph ENE16.3 kmh ENE 14.0 mph22.5 kmh 29.80 in1009.1 mb - 0.00 in0.0 mm 0.00 in0.0 mm
05:40 PM 80.1°F26.7°C 68.2°F20.1°C 67% 8.3 mph E13.4 kmh E 10.0 mph16.1 kmh 29.79 in1008.8 mb - 0.00 in0.0 mm 0.00 in0.0 mm
05:30 PM 81.0°F27.2°C 68.6°F20.3°C 66% 11.0 mph E17.7 kmh E 15.0 mph24.1 kmh 29.79 in1008.8 mb - 0.00 in0.0 mm 0.00 in0.0 mm
05:20 PM 81.2°F27.3°C 68.8°F20.4°C 66% 8.2 mph ENE13.2 kmh ENE 13.0 mph20.9 kmh 29.79 in1008.8 mb - 0.00 in0.0 mm 0.00 in0.0 mm
05:10 PM 81.8°F27.7°C 68.4°F20.2°C 64% 8.1 mph E13.0 kmh E 16.0 mph25.7 kmh 29.79 in1008.8 mb - 0.00 in0.0 mm 0.00 in0.0 mm
05:00 PM 82.2°F27.9°C 68.3°F20.2°C 63% 7.4 mph E11.9 kmh E 11.0 mph17.7 kmh 29.79 in1008.8 mb - 0.00 in0.0 mm 0.00 in0.0 mm
04:50 PM 82.9°F28.3°C 68.5°F20.3°C 62% 10.5 mph NE16.9 kmh NE 16.0 mph25.7 kmh 29.78 in1008.5 mb - 0.00 in0.0 mm 0.00 in0.0 mm
04:40 PM 83.8°F28.8°C 68.4°F20.2°C 60% 7.5 mph E12.1 kmh E 9.0 mph14.5 kmh 29.78 in1008.5 mb - 0.00 in0.0 mm 0.00 in0.0 mm
04:30 PM 83.8°F28.8°C 68.9°F20.5°C 61% 5.0 mph E8.0 kmh E 16.0 mph25.7 kmh 29.78 in1008.5 mb - 0.00 in0.0 mm 0.00 in0.0 mm
04:20 PM 83.9°F28.8°C 68.6°F20.3°C 60% 9.6 mph E15.4 kmh E 15.0 mph24.1 kmh 29.79 in1008.8 mb - 0.00 in0.0 mm 0.00 in0.0 mm
04:10 PM 84.5°F29.2°C 69.1°F20.6°C 60% 5.2 mph E8.4 kmh E 16.0 mph25.7 kmh 29.79 in1008.8 mb - 0.00 in0.0 mm 0.00 in0.0 mm
04:00 PM 83.9°F28.8°C 69.5°F20.8°C 62% 4.1 mph E6.6 kmh E 15.0 mph24.1 kmh 29.79 in1008.8 mb - 0.00 in0.0 mm 0.00 in0.0 mm
03:50 PM 84.5°F29.2°C 70.5°F21.4°C 63% 10.0 mph ENE16.1 kmh ENE 13.0 mph20.9 kmh 29.80 in1009.1 mb - 0.00 in0.0 mm 0.00 in0.0 mm
03:40 PM 85.3°F29.6°C 70.8°F21.6°C 62% 6.4 mph E10.3 kmh E 13.0 mph20.9 kmh 29.80 in1009.1 mb - 0.00 in0.0 mm 0.00 in0.0 mm
03:30 PM 85.7°F29.8°C 71.2°F21.8°C 62% 5.1 mph E8.2 kmh E 8.0 mph12.9 kmh 29.80 in1009.1 mb - 0.00 in0.0 mm 0.00 in0.0 mm
03:20 PM 85.6°F29.8°C 71.5°F21.9°C 63% 1.5 mph E2.4 kmh E 6.0 mph9.7 kmh 29.80 in1009.1 mb - 0.00 in0.0 mm 0.00 in0.0 mm
03:10 PM 85.1°F29.5°C 70.6°F21.4°C 62% 11.6 mph E18.7 kmh E 14.0 mph22.5 kmh 29.80 in1009.1 mb - 0.00 in0.0 mm 0.00 in0.0 mm
03:00 PM 86.0°F30.0°C 71.5°F21.9°C 62% 7.7 mph ESE12.4 kmh ESE 16.0 mph25.7 kmh 29.80 in1009.1 mb - 0.00 in0.0 mm 0.00 in0.0 mm
02:50 PM 86.5°F30.3°C 72.4°F22.4°C 63% 1.8 mph E2.9 kmh E 14.0 mph22.5 kmh 29.80 in1009.1 mb - 0.00 in0.0 mm 0.00 in0.0 mm
02:40 PM 87.5°F30.8°C 72.4°F22.4°C 61% 10.2 mph E16.4 kmh E 15.0 mph24.1 kmh 29.81 in1009.5 mb - 0.00 in0.0 mm 0.00 in0.0 mm
02:30 PM 87.2°F30.7°C 71.6°F22.0°C 60% 5.4 mph E8.7 kmh E 15.0 mph24.1 kmh 29.81 in1009.5 mb - 0.00 in0.0 mm 0.00 in0.0 mm
02:20 PM 87.0°F30.6°C 70.9°F21.6°C 59% 13.0 mph E20.9 kmh E 17.0 mph27.4 kmh 29.81 in1009.5 mb - 0.00 in0.0 mm 0.00 in0.0 mm
02:10 PM 87.2°F30.7°C 71.6°F22.0°C 60% 7.8 mph E12.6 kmh E 18.0 mph29.0 kmh 29.81 in1009.5 mb - 0.00 in0.0 mm 0.00 in0.0 mm
02:00 PM 86.8°F30.4°C 70.8°F21.6°C 59% 8.9 mph E14.3 kmh E 17.0 mph27.4 kmh 29.82 in1009.8 mb - 0.00 in0.0 mm 0.00 in0.0 mm
01:50 PM 87.0°F30.6°C 71.4°F21.9°C 60% 8.1 mph E13.0 kmh E 15.0 mph24.1 kmh 29.82 in1009.8 mb - 0.00 in0.0 mm 0.00 in0.0 mm
01:40 PM 86.8°F30.4°C 71.7°F22.1°C 61% 7.6 mph ESE12.2 kmh ESE 18.0 mph29.0 kmh 29.82 in1009.8 mb - 0.00 in0.0 mm 0.00 in0.0 mm
01:30 PM 86.8°F30.4°C 72.2°F22.3°C 62% 2.3 mph E3.7 kmh E 10.0 mph16.1 kmh 29.82 in1009.8 mb - 0.00 in0.0 mm 0.00 in0.0 mm
01:20 PM 86.9°F30.5°C 71.3°F21.8°C 60% 8.6 mph E13.8 kmh E 12.0 mph19.3 kmh 29.83 in1010.2 mb - 0.00 in0.0 mm 0.00 in0.0 mm
01:10 PM 86.6°F30.3°C 71.6°F22.0°C 61% 4.9 mph ENE7.9 kmh ENE 10.0 mph16.1 kmh 29.84 in1010.5 mb - 0.00 in0.0 mm 0.00 in0.0 mm
01:00 PM 87.6°F30.9°C 71.5°F21.9°C 59% 9.0 mph E14.5 kmh E 16.0 mph25.7 kmh 29.84 in1010.5 mb - 0.00 in0.0 mm 0.00 in0.0 mm
12:50 PM 86.9°F30.5°C 70.8°F21.6°C 59% 3.1 mph E5.0 kmh E 3.0 mph4.8 kmh 29.84 in1010.5 mb - 0.00 in0.0 mm 0.00 in0.0 mm
12:40 PM 86.2°F30.1°C 70.2°F21.2°C 59% 8.3 mph ESE13.4 kmh ESE 11.0 mph17.7 kmh 29.85 in1010.8 mb - 0.00 in0.0 mm 0.00 in0.0 mm
12:30 PM 86.0°F30.0°C 70.0°F21.1°C 59% 9.9 mph E15.9 kmh E 16.0 mph25.7 kmh 29.85 in1010.8 mb - 0.00 in0.0 mm 0.00 in0.0 mm
12:20 PM 85.9°F29.9°C 70.4°F21.3°C 60% 9.7 mph E15.6 kmh E 16.0 mph25.7 kmh 29.85 in1010.8 mb - 0.00 in0.0 mm 0.00 in0.0 mm
12:10 PM 85.9°F29.9°C 70.9°F21.6°C 61% 7.3 mph E11.7 kmh E 14.0 mph22.5 kmh 29.86 in1011.2 mb - 0.00 in0.0 mm 0.00 in0.0 mm
12:00 PM 85.6°F29.8°C 70.1°F21.2°C 60% 7.4 mph E11.9 kmh E 13.0 mph20.9 kmh 29.86 in1011.2 mb - 0.00 in0.0 mm 0.00 in0.0 mm
11:50 AM 86.0°F30.0°C 69.5°F20.8°C 58% 6.6 mph E10.6 kmh E 15.0 mph24.1 kmh 29.86 in1011.2 mb - 0.00 in0.0 mm 0.00 in0.0 mm
11:40 AM 86.0°F30.0°C 69.5°F20.8°C 58% 7.7 mph E12.4 kmh E 11.0 mph17.7 kmh 29.86 in1011.2 mb - 0.00 in0.0 mm 0.00 in0.0 mm
11:30 AM 86.0°F30.0°C 69.0°F20.6°C 57% 7.8 mph ESE12.6 kmh ESE 17.0 mph27.4 kmh 29.87 in1011.5 mb - 0.00 in0.0 mm 0.00 in0.0 mm
11:20 AM 85.7°F29.8°C 69.2°F20.7°C 58% 7.2 mph E11.6 kmh E 10.0 mph16.1 kmh 29.87 in1011.5 mb - 0.00 in0.0 mm 0.00 in0.0 mm
11:10 AM 85.8°F29.9°C 68.9°F20.5°C 57% 10.0 mph ESE16.1 kmh ESE 18.0 mph29.0 kmh 29.87 in1011.5 mb - 0.00 in0.0 mm 0.00 in0.0 mm
11:00 AM 85.7°F29.8°C 68.2°F20.1°C 56% 10.9 mph ESE17.5 kmh ESE 17.0 mph27.4 kmh 29.87 in1011.5 mb - 0.00 in0.0 mm 0.00 in0.0 mm
10:50 AM 85.3°F29.6°C 69.4°F20.8°C 59% 8.5 mph E13.7 kmh E 11.0 mph17.7 kmh 29.88 in1011.9 mb - 0.00 in0.0 mm 0.00 in0.0 mm
10:40 AM 84.7°F29.3°C 68.8°F20.4°C 59% 9.3 mph E15.0 kmh E 13.0 mph20.9 kmh 29.87 in1011.5 mb - 0.00 in0.0 mm 0.00 in0.0 mm
10:30 AM 84.7°F29.3°C 69.3°F20.7°C 60% 5.8 mph ESE9.3 kmh ESE 8.0 mph12.9 kmh 29.87 in1011.5 mb - 0.00 in0.0 mm 0.00 in0.0 mm
10:20 AM 84.3°F29.1°C 69.4°F20.8°C 61% 7.8 mph ENE12.6 kmh ENE 11.0 mph17.7 kmh 29.87 in1011.5 mb - 0.00 in0.0 mm 0.00 in0.0 mm
10:10 AM 84.5°F29.2°C 69.1°F20.6°C 60% 7.8 mph E12.6 kmh E 11.0 mph17.7 kmh 29.87 in1011.5 mb - 0.00 in0.0 mm 0.00 in0.0 mm
10:00 AM 84.1°F28.9°C 68.7°F20.4°C 60% 8.3 mph E13.4 kmh E 8.0 mph12.9 kmh 29.87 in1011.5 mb - 0.00 in0.0 mm 0.00 in0.0 mm
09:50 AM 83.6°F28.7°C 68.7°F20.4°C 61% 9.6 mph E15.4 kmh E 11.0 mph17.7 kmh 29.87 in1011.5 mb - 0.00 in0.0 mm 0.00 in0.0 mm
09:40 AM 83.5°F28.6°C 69.1°F20.6°C 62% 8.5 mph E13.7 kmh E 12.0 mph19.3 kmh 29.87 in1011.5 mb - 0.00 in0.0 mm 0.00 in0.0 mm
09:30 AM 82.9°F28.3°C 69.0°F20.6°C 63% 11.6 mph ENE18.7 kmh ENE 16.0 mph25.7 kmh 29.87 in1011.5 mb - 0.00 in0.0 mm 0.00 in0.0 mm
09:20 AM 82.4°F28.0°C 68.5°F20.3°C 63% 8.6 mph E13.8 kmh E 14.0 mph22.5 kmh 29.87 in1011.5 mb - 0.00 in0.0 mm 0.00 in0.0 mm
09:10 AM 82.2°F27.9°C 67.9°F19.9°C 62% 8.2 mph ESE13.2 kmh ESE 11.0 mph17.7 kmh 29.87 in1011.5 mb - 0.00 in0.0 mm 0.00 in0.0 mm
09:00 AM 81.9°F27.7°C 67.6°F19.8°C 62% 8.5 mph E13.7 kmh E 14.0 mph22.5 kmh 29.87 in1011.5 mb - 0.00 in0.0 mm 0.00 in0.0 mm
08:50 AM 81.1°F27.3°C 66.9°F19.4°C 62% 6.7 mph ENE10.8 kmh ENE 13.0 mph20.9 kmh 29.87 in1011.5 mb - 0.00 in0.0 mm 0.00 in0.0 mm
08:40 AM 79.9°F26.6°C 66.6°F19.2°C 64% 6.4 mph E10.3 kmh E 10.0 mph16.1 kmh 29.87 in1011.5 mb - 0.00 in0.0 mm 0.00 in0.0 mm
08:30 AM 78.2°F25.7°C 68.1°F20.1°C 71% Calm Calm -- 29.88 in1011.9 mb - 0.00 in0.0 mm 0.00 in0.0 mm
08:20 AM 77.5°F25.3°C 67.7°F19.8°C 72% Calm Calm -- 29.88 in1011.9 mb - 0.00 in0.0 mm 0.00 in0.0 mm
08:10 AM 76.9°F24.9°C 67.6°F19.8°C 73% Calm Calm -- 29.87 in1011.5 mb - 0.00 in0.0 mm 0.00 in0.0 mm
08:00 AM 76.3°F24.6°C 67.4°F19.7°C 74% Calm Calm -- 29.87 in1011.5 mb - 0.00 in0.0 mm 0.00 in0.0 mm
07:50 AM 75.5°F24.2°C 64.7°F18.2°C 69% 5.4 mph ESE8.7 kmh ESE 8.0 mph12.9 kmh 29.87 in1011.5 mb - 0.00 in0.0 mm 0.00 in0.0 mm
07:40 AM 74.8°F23.8°C 64.4°F18.0°C 70% 11.0 mph SE17.7 kmh SE 18.0 mph29.0 kmh 29.86 in1011.2 mb - 0.00 in0.0 mm 0.00 in0.0 mm
07:30 AM 73.5°F23.1°C 65.1°F18.4°C 75% 4.4 mph E7.1 kmh E 7.0 mph11.3 kmh 29.86 in1011.2 mb - 0.00 in0.0 mm 0.00 in0.0 mm
07:20 AM 72.3°F22.4°C 65.1°F18.4°C 78% 1.3 mph E2.1 kmh E -- 29.86 in1011.2 mb - 0.00 in0.0 mm 0.00 in0.0 mm
07:10 AM 71.0°F21.7°C 65.6°F18.7°C 83% 7.0 mph SE11.3 kmh SE 13.0 mph20.9 kmh 29.86 in1011.2 mb - 0.00 in0.0 mm 0.00 in0.0 mm
07:00 AM 70.1°F21.2°C 65.4°F18.6°C 85% Calm Calm -- 29.86 in1011.2 mb - 0.00 in0.0 mm 0.00 in0.0 mm
06:50 AM 69.2°F20.7°C 65.2°F18.4°C 87% 2.1 mph ESE3.4 kmh ESE 5.0 mph8.0 kmh 29.86 in1011.2 mb - 0.00 in0.0 mm 0.00 in0.0 mm
06:40 AM 68.1°F20.1°C 64.7°F18.2°C 89% 1.6 mph E2.6 kmh E 3.0 mph4.8 kmh 29.86 in1011.2 mb - 0.00 in0.0 mm 0.00 in0.0 mm
06:30 AM 67.9°F19.9°C 64.9°F18.3°C 90% Calm Calm -- 29.86 in1011.2 mb - 0.00 in0.0 mm 0.00 in0.0 mm
06:20 AM 67.7°F19.8°C 64.7°F18.2°C 90% Calm Calm -- 29.86 in1011.2 mb - 0.00 in0.0 mm 0.00 in0.0 mm
06:10 AM 67.5°F19.7°C 64.2°F17.9°C 89% 1.9 mph E3.1 kmh E 5.0 mph8.0 kmh 29.85 in1010.8 mb - 0.00 in0.0 mm 0.00 in0.0 mm
06:00 AM 67.6°F19.8°C 64.6°F18.1°C 90% Calm Calm -- 29.85 in1010.8 mb - 0.00 in0.0 mm 0.00 in0.0 mm
05:50 AM 67.5°F19.7°C 64.5°F18.1°C 90% 1.1 mph E1.8 kmh E 1.0 mph1.6 kmh 29.85 in1010.8 mb - 0.00 in0.0 mm 0.00 in0.0 mm
05:40 AM 67.5°F19.7°C 64.5°F18.1°C 90% Calm Calm -- 29.85 in1010.8 mb - 0.00 in0.0 mm 0.00 in0.0 mm
05:30 AM 67.6°F19.8°C 64.6°F18.1°C 90% Calm Calm -- 29.85 in1010.8 mb - 0.00 in0.0 mm 0.00 in0.0 mm
05:20 AM 67.4°F19.7°C 64.4°F18.0°C 90% Calm Calm -- 29.84 in1010.5 mb - 0.00 in0.0 mm 0.00 in0.0 mm
05:10 AM 67.3°F19.6°C 64.0°F17.8°C 89% Calm Calm 1.0 mph1.6 kmh 29.84 in1010.5 mb - 0.00 in0.0 mm 0.00 in0.0 mm
05:00 AM 67.6°F19.8°C 64.2°F17.9°C 89% Calm Calm -- 29.84 in1010.5 mb - 0.00 in0.0 mm 0.00 in0.0 mm
04:50 AM 67.7°F19.8°C 64.3°F17.9°C 89% 0.1 mph E0.2 kmh E -- 29.84 in1010.5 mb - 0.00 in0.0 mm 0.00 in0.0 mm
04:40 AM 68.0°F20.0°C 64.0°F17.8°C 87% Calm Calm -- 29.84 in1010.5 mb - 0.00 in0.0 mm 0.00 in0.0 mm
04:30 AM 68.3°F20.2°C 64.0°F17.8°C 86% Calm Calm -- 29.84 in1010.5 mb - 0.00 in0.0 mm 0.00 in0.0 mm
04:20 AM 68.8°F20.4°C 64.1°F17.8°C 85% Calm Calm -- 29.84 in1010.5 mb - 0.00 in0.0 mm 0.00 in0.0 mm
04:10 AM 69.0°F20.6°C 64.3°F17.9°C 85% 0.2 mph E0.3 kmh E -- 29.84 in1010.5 mb - 0.00 in0.0 mm 0.00 in0.0 mm
04:00 AM 68.9°F20.5°C 64.2°F17.9°C 85% 1.6 mph E2.6 kmh E 3.0 mph4.8 kmh 29.84 in1010.5 mb - 0.00 in0.0 mm 0.00 in0.0 mm
03:50 AM 68.9°F20.5°C 64.5°F18.1°C 86% 0.2 mph E0.3 kmh E -- 29.84 in1010.5 mb - 0.00 in0.0 mm 0.00 in0.0 mm
03:40 AM 69.3°F20.7°C 64.9°F18.3°C 86% Calm Calm -- 29.84 in1010.5 mb - 0.00 in0.0 mm 0.00 in0.0 mm
03:30 AM 69.4°F20.8°C 64.7°F18.2°C 85% Calm Calm -- 29.84 in1010.5 mb - 0.00 in0.0 mm 0.00 in0.0 mm
03:20 AM 69.3°F20.7°C 64.9°F18.3°C 86% Calm Calm -- 29.84 in1010.5 mb - 0.00 in0.0 mm 0.00 in0.0 mm
03:10 AM 68.9°F20.5°C 65.2°F18.4°C 88% Calm Calm -- 29.84 in1010.5 mb - 0.00 in0.0 mm 0.00 in0.0 mm
03:00 AM 68.6°F20.3°C 64.9°F18.3°C 88% 2.1 mph E3.4 kmh E 4.0 mph6.4 kmh 29.84 in1010.5 mb - 0.00 in0.0 mm 0.00 in0.0 mm
02:50 AM 68.8°F20.4°C 64.8°F18.2°C 87% 0.9 mph E1.4 kmh E -- 29.84 in1010.5 mb - 0.00 in0.0 mm 0.00 in0.0 mm
02:40 AM 69.3°F20.7°C 64.9°F18.3°C 86% Calm Calm -- 29.84 in1010.5 mb - 0.00 in0.0 mm 0.00 in0.0 mm
02:30 AM 69.6°F20.9°C 64.9°F18.3°C 85% Calm Calm -- 29.84 in1010.5 mb - 0.00 in0.0 mm 0.00 in0.0 mm
02:20 AM 69.9°F21.1°C 64.8°F18.2°C 84% Calm Calm -- 29.84 in1010.5 mb - 0.00 in0.0 mm 0.00 in0.0 mm
02:10 AM 70.3°F21.3°C 64.9°F18.3°C 83% 1.2 mph E1.9 kmh E 3.0 mph4.8 kmh 29.84 in1010.5 mb - 0.00 in0.0 mm 0.00 in0.0 mm
02:00 AM 70.7°F21.5°C 64.9°F18.3°C 82% 2.4 mph E3.9 kmh E 3.0 mph4.8 kmh 29.85 in1010.8 mb - 0.00 in0.0 mm 0.00 in0.0 mm
01:50 AM 71.0°F21.7°C 64.5°F18.1°C 80% 1.7 mph E2.7 kmh E 3.0 mph4.8 kmh 29.85 in1010.8 mb - 0.00 in0.0 mm 0.00 in0.0 mm
01:40 AM 71.2°F21.8°C 64.7°F18.2°C 80% 3.6 mph E5.8 kmh E 5.0 mph8.0 kmh 29.85 in1010.8 mb - 0.00 in0.0 mm 0.00 in0.0 mm
01:30 AM 71.3°F21.8°C 65.2°F18.4°C 81% 3.2 mph E5.1 kmh E 7.0 mph11.3 kmh 29.86 in1011.2 mb - 0.00 in0.0 mm 0.00 in0.0 mm
01:20 AM 71.4°F21.9°C 65.3°F18.5°C 81% 4.0 mph E6.4 kmh E 6.0 mph9.7 kmh 29.86 in1011.2 mb - 0.00 in0.0 mm 0.00 in0.0 mm
01:10 AM 71.3°F21.8°C 65.5°F18.6°C 82% 3.0 mph E4.8 kmh E 5.0 mph8.0 kmh 29.87 in1011.5 mb - 0.00 in0.0 mm 0.00 in0.0 mm
01:00 AM 71.0°F21.7°C 65.6°F18.7°C 83% 3.0 mph E4.8 kmh E 4.0 mph6.4 kmh 29.87 in1011.5 mb - 0.00 in0.0 mm 0.00 in0.0 mm
12:50 AM 70.9°F21.6°C 65.8°F18.8°C 84% Calm Calm -- 29.87 in1011.5 mb - 0.00 in0.0 mm 0.00 in0.0 mm
12:40 AM 71.1°F21.7°C 66.0°F18.9°C 84% Calm Calm -- 29.87 in1011.5 mb - 0.00 in0.0 mm 0.00 in0.0 mm
12:30 AM 71.3°F21.8°C 65.9°F18.8°C 83% Calm Calm -- 29.88 in1011.9 mb - 0.00 in0.0 mm 0.00 in0.0 mm
12:20 AM 71.4°F21.9°C 66.0°F18.9°C 83% Calm Calm -- 29.88 in1011.9 mb - 0.00 in0.0 mm 0.00 in0.0 mm
12:10 AM 71.6°F22.0°C 65.8°F18.8°C 82% Calm Calm -- 29.88 in1011.9 mb - 0.00 in0.0 mm 0.00 in0.0 mm
12:00 AM 71.6°F22.0°C 65.8°F18.8°C 82% 1.3 mph E2.1 kmh E 3.0 mph4.8 kmh 29.88 in1011.9 mb - 0.00 in0.0 mm 0.00 in0.0 mm